CYWL

Williams Lake Airport

Williams Lake, British Columbia, Canada
METAR CYWL 181400Z 25003KT 1/2SM FU BKN030 OVC100 10/01 A3034 RMK FU6FU1AC1 SLP281
Observed Flight Rules
Aug-18 @ 14:00 UTC (52 minutes ago) Instrument Flight Rules
Wind Visibility Clouds Conditions
250° at 3 knots 1/2 miles
  • Broken at 3,000' AGL
  • Overcast at 10,000' AGL
  • Smoke
Temperatures Readings
Current 10°C / 50°F
Dewpoint 1°C / 34°F
Humidity 54%
Altimeter 30.34" Hg
Pressure 1028.1 hPa
Elevation 940
METAR CYWL 181400Z 25003KT 1/2SM FU BKN030 OVC100 10/01 A3034 RMK FU6FU1AC1 SLP281
Observed Flight Rules
Aug-18 @ 14:00 UTC
(52 minutes ago)
LIFR
Wind Visibility
250° at 3 knots 1/2 miles
Clouds
  • Broken at 3,000' AGL
  • Overcast at 10,000' AGL
Conditions
  • Smoke
Temperature Dewpoint
10°C / 50°F 1°C / 34°F
Humidity Altimeter Pressure
54% 30.34" Hg 1028.1 hPa